N1261P KAUS-KAUS
Flight info
| Callsign | N1261P |
|---|---|
| Flight time | 0h 3m |
| Altitude | 1500 |
| Route | KAUS ZZZZ |
| Aircraft | SR22/L-V/N |
Departure
| Time | 2026-05-04 22:39 |
|---|---|
| Airport | Austin Bergstrom International Airport (KAUS) |
Arrival
| Time | 2026-05-04 22:42 |
|---|---|
| Airport | Austin Bergstrom International Airport (KAUS) |
| Time | Latitude | Longitude | Altitude | Speed | Heading |
|---|---|---|---|---|---|
| 2026-05-04 22:30 | 30.21711 | -97.67310 | 531 ft | 0 kts | 9° |
| 2026-05-04 22:35 | 30.21706 | -97.67294 | 531 ft | 8 kts | 220° |
| 2026-05-04 22:35 | 30.21695 | -97.67373 | 531 ft | 13 kts | 272° |
| 2026-05-04 22:36 | 30.21665 | -97.67464 | 532 ft | 12 kts | 241° |
| 2026-05-04 22:36 | 30.21625 | -97.67562 | 532 ft | 15 kts | 237° |
| 2026-05-04 22:36 | 30.21551 | -97.67649 | 529 ft | 16 kts | 221° |
| 2026-05-04 22:36 | 30.21494 | -97.67706 | 527 ft | 13 kts | 227° |
| 2026-05-04 22:37 | 30.21411 | -97.67787 | 525 ft | 17 kts | 219° |
| 2026-05-04 22:37 | 30.21358 | -97.67848 | 525 ft | 0 kts | 238° |
| 2026-05-04 22:37 | 30.21358 | -97.67849 | 525 ft | 0 kts | 239° |
| 2026-05-04 22:38 | 30.21348 | -97.67871 | 525 ft | 13 kts | 245° |
| 2026-05-04 22:38 | 30.21241 | -97.67934 | 523 ft | 33 kts | 179° |
| 2026-05-04 22:38 | 30.20830 | -97.67927 | 627 ft | 72 kts | 179° |
| 2026-05-04 22:39 | 30.20357 | -97.67898 | 1006 ft | 66 kts | 173° |
| 2026-05-04 22:39 | 30.19840 | -97.67878 | 1238 ft | 78 kts | 180° |
| 2026-05-04 22:39 | 30.19434 | -97.68235 | 1490 ft | 91 kts | 243° |
| 2026-05-04 22:39 | 30.19471 | -97.68993 | 1475 ft | 94 kts | 264° |
| 2026-05-04 22:40 | 30.19611 | -97.69759 | 1432 ft | 109 kts | 293° |
| 2026-05-04 22:40 | 30.20417 | -97.69921 | 1417 ft | 124 kts | 10° |
| 2026-05-04 22:40 | 30.21302 | -97.69760 | 1590 ft | 130 kts | 4° |
| 2026-05-04 22:40 | 30.22191 | -97.69670 | 1642 ft | 125 kts | 7° |
| 2026-05-04 22:41 | 30.23062 | -97.69537 | 1592 ft | 130 kts | 29° |
| 2026-05-04 22:41 | 30.23618 | -97.68781 | 1543 ft | 117 kts | 84° |
| 2026-05-04 22:41 | 30.23227 | -97.68202 | 1436 ft | 100 kts | 154° |
| 2026-05-04 22:41 | 30.22598 | -97.67977 | 1314 ft | 89 kts | 168° |
| 2026-05-04 22:42 | 30.22066 | -97.68002 | 1014 ft | 67 kts | 189° |
| 2026-05-04 22:42 | 30.21618 | -97.67938 | 666 ft | 67 kts | 171° |
| 2026-05-04 22:42 | 30.21201 | -97.67930 | 530 ft | 52 kts | 181° |
| 2026-05-04 22:42 | 30.20943 | -97.67921 | 523 ft | 33 kts | 179° |
| 2026-05-04 22:43 | 30.20511 | -97.67910 | 569 ft | 81 kts | 180° |
| 2026-05-04 22:43 | 30.19910 | -97.67911 | 888 ft | 77 kts | 176° |
| 2026-05-04 22:43 | 30.19367 | -97.67924 | 1235 ft | 84 kts | 184° |
| 2026-05-04 22:43 | 30.19074 | -97.68487 | 1439 ft | 105 kts | 266° |
| 2026-05-04 22:44 | 30.19241 | -97.69247 | 1497 ft | 97 kts | 275° |
| 2026-05-04 22:44 | 30.19548 | -97.69964 | 1486 ft | 108 kts | 313° |
| 2026-05-04 22:44 | 30.20314 | -97.70098 | 1474 ft | 118 kts | 20° |
| 2026-05-04 22:44 | 30.21145 | -97.69771 | 1553 ft | 129 kts | 21° |
| 2026-05-04 22:45 | 30.21973 | -97.69465 | 1527 ft | 121 kts | 15° |
| 2026-05-04 22:45 | 30.23421 | -97.68827 | 1260 ft | 104 kts | 76° |
| 2026-05-04 22:45 | 30.23311 | -97.68163 | 1109 ft | 77 kts | 153° |
| 2026-05-04 22:46 | 30.22814 | -97.68008 | 984 ft | 75 kts | 174° |
| 2026-05-04 22:46 | 30.22314 | -97.67998 | 785 ft | 73 kts | 171° |
| 2026-05-04 22:46 | 30.21771 | -97.67954 | 639 ft | 84 kts | 176° |
| 2026-05-04 22:46 | 30.21188 | -97.67930 | 534 ft | 80 kts | 179° |
| 2026-05-04 22:47 | 30.20698 | -97.67915 | 521 ft | 59 kts | 179° |
| 2026-05-04 22:47 | 30.20320 | -97.67909 | 512 ft | 72 kts | 179° |
| 2026-05-04 22:47 | 30.19770 | -97.67865 | 717 ft | 78 kts | 179° |
| 2026-05-04 22:47 | 30.19237 | -97.67887 | 1035 ft | 83 kts | 181° |
| 2026-05-04 22:48 | 30.18615 | -97.67923 | 1297 ft | 87 kts | 200° |
| 2026-05-04 22:48 | 30.18408 | -97.68575 | 1487 ft | 102 kts | 266° |
| 2026-05-04 22:48 | 30.18524 | -97.69379 | 1539 ft | 102 kts | 267° |
| 2026-05-04 22:48 | 30.18690 | -97.70225 | 1479 ft | 122 kts | 296° |
| 2026-05-04 22:49 | 30.19529 | -97.70496 | 1425 ft | 144 kts | 11° |
| 2026-05-04 22:49 | 30.20450 | -97.70254 | 1432 ft | 132 kts | 17° |
| 2026-05-04 22:49 | 30.21350 | -97.69974 | 1341 ft | 137 kts | 15° |
| 2026-05-04 22:49 | 30.22166 | -97.69627 | 1291 ft | 122 kts | 39° |
| 2026-05-04 22:50 | 30.22543 | -97.68881 | 1003 ft | 100 kts | 99° |
| 2026-05-04 22:50 | 30.22473 | -97.68209 | 727 ft | 74 kts | 142° |
| 2026-05-04 22:50 | 30.21983 | -97.67975 | 656 ft | 83 kts | 174° |
| 2026-05-04 22:50 | 30.21445 | -97.67938 | 577 ft | 72 kts | 179° |
| 2026-05-04 22:51 | 30.20976 | -97.67931 | 525 ft | 60 kts | 181° |
| 2026-05-04 22:51 | 30.20642 | -97.67922 | 520 ft | 60 kts | 179° |
| 2026-05-04 22:51 | 30.20090 | -97.67903 | 622 ft | 87 kts | 178° |
| 2026-05-04 22:51 | 30.19502 | -97.67906 | 979 ft | 85 kts | 178° |
| 2026-05-04 22:52 | 30.18879 | -97.67904 | 1281 ft | 88 kts | 192° |
| 2026-05-04 22:52 | 30.18591 | -97.68539 | 1569 ft | 100 kts | 255° |
| 2026-05-04 22:52 | 30.18658 | -97.69404 | 1732 ft | 112 kts | 265° |
| 2026-05-04 22:52 | 30.18864 | -97.70218 | 1565 ft | 114 kts | 311° |
| 2026-05-04 22:53 | 30.19641 | -97.70583 | 1394 ft | 127 kts | 345° |
| 2026-05-04 22:53 | 30.20487 | -97.70761 | 1338 ft | 123 kts | 346° |
| 2026-05-04 22:53 | 30.21323 | -97.70798 | 1308 ft | 127 kts | 8° |
| 2026-05-04 22:53 | 30.22097 | -97.70487 | 1255 ft | 115 kts | 56° |
| 2026-05-04 22:54 | 30.22342 | -97.69635 | 1084 ft | 110 kts | 100° |
| 2026-05-04 22:54 | 30.22347 | -97.68795 | 890 ft | 99 kts | 105° |
| 2026-05-04 22:54 | 30.22167 | -97.68151 | 721 ft | 80 kts | 148° |
| 2026-05-04 22:54 | 30.21676 | -97.67971 | 612 ft | 67 kts | 172° |
| 2026-05-04 22:55 | 30.21235 | -97.67934 | 525 ft | 56 kts | 178° |
| 2026-05-04 22:55 | 30.20936 | -97.67930 | 522 ft | 52 kts | 178° |
| 2026-05-04 22:55 | 30.20414 | -97.67909 | 622 ft | 87 kts | 178° |
| 2026-05-04 22:55 | 30.19797 | -97.67899 | 939 ft | 87 kts | 182° |
| 2026-05-04 22:56 | 30.19179 | -97.67987 | 1227 ft | 96 kts | 199° |
| 2026-05-04 22:56 | 30.18832 | -97.68674 | 1414 ft | 106 kts | 252° |
| 2026-05-04 22:56 | 30.19032 | -97.69462 | 1584 ft | 106 kts | 327° |
| 2026-05-04 22:56 | 30.19599 | -97.69067 | 1118 ft | 108 kts | 72° |
| 2026-05-04 22:57 | 30.19957 | -97.68289 | 853 ft | 106 kts | 70° |
| 2026-05-04 22:57 | 30.20559 | -97.67888 | 529 ft | 99 kts | 352° |
| 2026-05-04 22:57 | 30.21058 | -97.67927 | 534 ft | 37 kts | 4° |
| 2026-05-04 22:57 | 30.21321 | -97.67929 | 525 ft | 35 kts | 4° |
| 2026-05-04 22:58 | 30.21352 | -97.67836 | 525 ft | 15 kts | 90° |
| 2026-05-04 22:58 | 30.21354 | -97.67739 | 525 ft | 18 kts | 87° |
| 2026-05-04 22:58 | 30.21361 | -97.67585 | 527 ft | 14 kts | 84° |
| 2026-05-04 22:58 | 30.21363 | -97.67566 | 527 ft | 0 kts | 84° |
| 2026-05-04 22:59 | 30.21363 | -97.67562 | 527 ft | 2 kts | 87° |
| 2026-05-04 22:59 | 30.21363 | -97.67551 | 527 ft | 0 kts | 91° |
| 2026-05-04 23:00 | 30.21363 | -97.67549 | 527 ft | 1 kts | 91° |
| 2026-05-04 23:00 | 30.21363 | -97.67548 | 527 ft | 0 kts | 92° |
| 2026-05-04 23:00 | 30.21363 | -97.67541 | 528 ft | 3 kts | 83° |